Time;durP1;ratioP1;P1;durP2;ratioP2;P2;SDS_P1;SDS_P2;PMS_P1;PMS_P2;Temp;Humidity;BMP_temperature;BMP_pressure;BME280_temperature;BME280_humidity;BME280_pressure;Samples;Min_cycle;Max_cycle;Signal;HPM_P1;HPM_P2
2023/05/27 05:01:24;;;;;;;15.85;3.67;;;13.30;91.40;;;;;;5932143;23;20026;31
2023/05/27 05:04:11;;;;;;;12.18;3.38;;;13.40;91.00;;;;;;4837680;29;20201;-70
2023/05/27 05:06:40;;;;;;;12.68;3.30;;;13.40;91.00;;;;;;4845191;29;20038;-70
2023/05/27 05:09:11;;;;;;;10.43;3.17;;;13.50;91.00;;;;;;4834790;29;20272;-70
2023/05/27 05:11:38;;;;;;;12.20;3.47;;;13.60;90.90;;;;;;4835240;29;20109;-70
2023/05/27 05:14:03;;;;;;;14.50;4.10;;;13.70;90.80;;;;;;4819500;29;20034;-70
2023/05/27 05:16:29;;;;;;;12.25;3.42;;;13.70;90.70;;;;;;4835358;29;20037;-71
2023/05/27 05:18:55;;;;;;;9.27;3.35;;;13.70;90.70;;;;;;4835793;29;20083;-69
2023/05/27 05:21:22;;;;;;;10.90;3.63;;;13.80;90.40;;;;;;4820062;29;20334;-70
2023/05/27 05:23:48;;;;;;;8.95;2.92;;;13.90;90.70;;;;;;4834179;29;20022;-70
2023/05/27 05:26:14;;;;;;;14.32;3.53;;;14.00;90.00;;;;;;4827421;29;20089;-71
2023/05/27 05:28:42;;;;;;;11.75;4.03;;;14.10;90.30;;;;;;4834050;29;20102;-70
2023/05/27 05:31:10;;;;;;;10.07;3.75;;;14.10;90.30;;;;;;4819131;29;20034;-70
2023/05/27 05:33:35;;;;;;;11.68;3.30;;;14.20;90.00;;;;;;4834690;29;20102;-71
2023/05/27 05:36:02;;;;;;;11.15;3.45;;;14.30;90.00;;;;;;4835218;29;20342;-70
2023/05/27 05:38:51;;;;;;;10.52;3.80;;;14.40;89.60;;;;;;4835658;29;20056;-70
2023/05/27 05:41:17;;;;;;;10.82;2.97;;;14.50;89.50;;;;;;4834873;29;20075;-70
2023/05/27 05:43:43;;;;;;;12.27;3.90;;;14.60;89.00;;;;;;4819560;29;20061;-70
2023/05/27 05:46:09;;;;;;;12.63;4.43;;;14.70;88.50;;;;;;4835894;29;20030;-70
2023/05/27 05:48:35;;;;;;;14.35;3.70;;;14.70;88.10;;;;;;4833823;29;20030;-70
2023/05/27 05:51:01;;;;;;;14.32;4.10;;;14.80;87.90;;;;;;4819266;29;20026;-71
2023/05/27 05:53:28;;;;;;;14.45;3.92;;;14.90;87.60;;;;;;4834608;29;20040;-71
2023/05/27 05:55:54;;;;;;;12.07;3.42;;;15.00;87.70;;;;;;4834341;29;20312;-71
2023/05/27 05:58:20;;;;;;;8.85;3.25;;;15.10;87.00;;;;;;4834497;29;20023;-71
2023/05/27 06:00:48;;;;;;;13.63;3.40;;;15.20;87.20;;;;;;4834699;29;20331;-72
2023/05/27 06:03:35;;;;;;;14.80;3.65;;;15.10;87.10;;;;;;4815916;29;20468;-72
2023/05/27 06:06:02;;;;;;;11.85;3.28;;;15.20;87.50;;;;;;4800846;29;20039;-72
2023/05/27 06:08:28;;;;;;;12.18;4.50;;;15.30;86.50;;;;;;4816443;29;20066;-71
2023/05/27 06:11:05;;;;;;;10.63;3.97;;;15.40;85.90;;;;;;4815971;29;20034;-71
2023/05/27 06:13:33;;;;;;;12.60;3.42;;;15.40;85.20;;;;;;4801156;29;20035;-69
2023/05/27 06:15:59;;;;;;;8.27;3.00;;;15.50;86.00;;;;;;4815732;29;20083;-71
2023/05/27 06:18:26;;;;;;;11.70;3.72;;;15.60;85.30;;;;;;4801048;29;20047;-70
2023/05/27 06:20:51;;;;;;;11.75;3.70;;;15.60;84.70;;;;;;4816080;29;20047;-71
2023/05/27 06:23:19;;;;;;;12.07;3.58;;;15.70;84.60;;;;;;4801050;29;20038;-69
2023/05/27 06:26:00;;;;;;;12.25;3.80;;;15.80;84.50;;;;;;4816367;29;20042;-70
2023/05/27 06:28:29;;;;;;;10.07;3.42;;;15.90;84.80;;;;;;4815908;29;20030;-71
2023/05/27 06:30:55;;;;;;;11.65;4.10;;;16.00;84.60;;;;;;4815604;29;20330;-71
2023/05/27 06:33:21;;;;;;;11.75;3.63;;;16.00;84.20;;;;;;4800730;29;20220;-70
2023/05/27 06:35:47;;;;;;;12.10;4.00;;;16.10;84.30;;;;;;4815740;29;20076;-71
2023/05/27 06:38:13;;;;;;;12.30;3.55;;;16.10;83.30;;;;;;4815226;29;20022;-69
2023/05/27 06:40:38;;;;;;;10.07;3.78;;;16.20;83.70;;;;;;4800803;29;20320;-70
2023/05/27 06:43:04;;;;;;;13.38;3.85;;;16.30;83.60;;;;;;4815513;29;20041;-70
2023/05/27 06:45:52;;;;;;;12.33;3.90;;;16.40;83.40;;;;;;4815992;29;20033;-72
2023/05/27 06:48:31;;;;;;;11.88;3.72;;;16.60;83.00;;;;;;4815928;29;20535;-71
2023/05/27 06:50:57;;;;;;;13.43;3.90;;;16.60;82.70;;;;;;4816506;29;20035;-70
2023/05/27 06:53:23;;;;;;;16.00;4.03;;;16.70;82.40;;;;;;4815577;29;20115;-71
2023/05/27 06:55:52;;;;;;;16.90;4.50;;;16.80;82.60;;;;;;4815461;29;20049;-70
2023/05/27 06:58:36;;;;;;;12.40;3.97;;;16.80;82.30;;;;;;4816092;29;20026;-71
2023/05/27 07:01:08;;;;;;;12.45;4.00;;;17.00;81.80;;;;;;4814875;29;20043;-70
2023/05/27 07:03:38;;;;;;;10.77;3.47;;;17.00;82.40;;;;;;4815298;29;20046;-72
2023/05/27 07:06:05;;;;;;;11.15;3.30;;;17.20;82.10;;;;;;4815145;29;20106;-70
2023/05/27 07:08:38;;;;;;;10.35;3.53;;;17.30;81.30;;;;;;4815382;29;20110;-73
2023/05/27 07:11:11;;;;;;;13.50;3.65;;;17.50;81.20;;;;;;4812314;29;20085;-70
2023/05/27 07:13:37;;;;;;;11.50;3.05;;;17.70;80.40;;;;;;4815204;29;20316;-70
2023/05/27 07:16:04;;;;;;;10.20;3.45;;;17.70;80.00;;;;;;4814942;29;20034;-70
2023/05/27 07:18:29;;;;;;;10.75;3.15;;;17.70;79.30;;;;;;4800228;29;20283;-70
2023/05/27 07:20:57;;;;;;;9.80;3.83;;;17.80;79.40;;;;;;4815853;29;20060;-72
2023/05/27 07:23:23;;;;;;;14.40;4.32;;;17.80;78.90;;;;;;4815276;29;20327;-72
2023/05/27 07:26:00;;;;;;;12.57;3.53;;;17.90;78.90;;;;;;4815341;29;20027;-71
2023/05/27 07:28:26;;;;;;;10.20;3.20;;;18.10;78.50;;;;;;4815225;29;20023;-71
2023/05/27 07:31:00;;;;;;;13.35;3.50;;;18.10;78.60;;;;;;4814696;29;20058;-72
2023/05/27 07:33:26;;;;;;;14.02;3.45;;;18.10;78.90;;;;;;4799878;29;20316;-72
2023/05/27 07:35:52;;;;;;;14.52;3.88;;;18.20;78.90;;;;;;4799863;29;20102;-74
2023/05/27 07:38:18;;;;;;;9.88;3.22;;;18.30;78.50;;;;;;4815842;29;20563;-75
2023/05/27 07:40:44;;;;;;;14.43;3.63;;;18.40;78.30;;;;;;4816253;29;20038;-71
2023/05/27 07:43:10;;;;;;;14.68;4.03;;;18.40;77.90;;;;;;4814859;29;20069;-71
2023/05/27 07:45:36;;;;;;;8.80;3.40;;;18.50;77.30;;;;;;4799938;29;20026;-70
2023/05/27 07:48:02;;;;;;;11.43;4.40;;;18.50;77.10;;;;;;4799475;29;20035;-71
2023/05/27 07:50:28;;;;;;;11.18;3.67;;;18.50;77.40;;;;;;4814878;29;20031;-71
2023/05/27 07:53:02;;;;;;;9.77;3.70;;;18.60;77.60;;;;;;4814396;29;20044;-70
2023/05/27 07:55:29;;;;;;;10.93;3.67;;;18.60;76.90;;;;;;4814829;29;20055;-71
2023/05/27 07:57:55;;;;;;;9.93;4.10;;;18.70;76.50;;;;;;4815690;29;20251;-71
2023/05/27 08:00:24;;;;;;;9.63;3.28;;;18.90;76.20;;;;;;4799095;29;20328;-71
2023/05/27 08:02:53;;;;;;;14.07;3.47;;;19.00;75.50;;;;;;4814872;29;20082;-70
2023/05/27 08:05:22;;;;;;;9.80;3.72;;;19.00;74.90;;;;;;4799000;29;20316;-70
2023/05/27 08:08:17;;;;;;;14.18;3.88;;;19.20;75.60;;;;;;4783985;29;20051;-73
2023/05/27 08:11:01;;;;;;;10.60;3.63;;;19.30;74.10;;;;;;4813787;29;20037;-71
2023/05/27 08:13:44;;;;;;;10.82;3.42;;;19.50;74.20;;;;;;4811139;29;20252;-70
2023/05/27 08:16:29;;;;;;;10.40;3.70;;;19.60;74.10;;;;;;4815187;29;20038;-72
2023/05/27 08:19:06;;;;;;;10.27;3.53;;;19.80;73.50;;;;;;4807909;29;20034;-70
2023/05/27 08:21:55;;;;;;;;;;;20.00;73.60;;;;;;4805512;29;20313;-71
2023/05/27 08:24:40;;;;;;;10.00;3.45;;;20.00;72.90;;;;;;4814716;29;19925;-72
2023/05/27 08:27:46;;;;;;;11.73;4.30;;;20.00;73.30;;;;;;4814622;29;20038;-70
2023/05/27 08:30:18;;;;;;;11.95;4.25;;;20.20;73.40;;;;;;4799237;29;20118;-71
2023/05/27 08:32:55;;;;;;;10.55;3.60;;;20.30;72.80;;;;;;4813913;29;20083;-69
2023/05/27 08:35:21;;;;;;;13.13;4.10;;;20.50;72.50;;;;;;4798304;29;20053;-69
2023/05/27 08:37:47;;;;;;;10.68;3.83;;;20.60;72.00;;;;;;4813585;29;20062;-70
2023/05/27 08:40:15;;;;;;;11.15;3.75;;;20.60;71.50;;;;;;4813779;29;20330;-71
2023/05/27 08:42:46;;;;;;;9.52;3.08;;;20.70;73.00;;;;;;4813894;29;20316;-70
2023/05/27 08:45:13;;;;;;;12.27;3.97;;;20.70;71.70;;;;;;4813761;29;20066;-70
2023/05/27 08:47:39;;;;;;;8.23;3.45;;;20.70;71.80;;;;;;4806584;29;20111;-70
2023/05/27 08:50:07;;;;;;;8.35;3.50;;;20.70;71.90;;;;;;4798471;29;20254;-69
2023/05/27 08:52:37;;;;;;;11.07;3.60;;;20.90;72.20;;;;;;4814803;29;20070;-69
2023/05/27 08:55:05;;;;;;;10.20;3.20;;;21.00;71.10;;;;;;4812923;29;20256;-70
2023/05/27 08:57:35;;;;;;;8.80;3.30;;;21.20;71.50;;;;;;4796722;29;20031;-70
2023/05/27 09:00:01;;;;;;;11.60;3.95;;;21.20;70.50;;;;;;4798468;29;20080;-70
2023/05/27 09:02:27;;;;;;;10.95;3.95;;;21.30;70.50;;;;;;4813491;29;20057;-69
2023/05/27 09:04:53;;;;;;;8.55;3.60;;;21.40;70.40;;;;;;4813549;29;20224;-70
2023/05/27 09:07:22;;;;;;;12.65;3.88;;;21.40;70.20;;;;;;4814375;29;20259;-70
2023/05/27 09:09:58;;;;;;;10.45;3.88;;;21.40;70.20;;;;;;4814631;29;20377;-70
2023/05/27 09:12:25;;;;;;;10.93;3.85;;;21.40;69.50;;;;;;4814354;29;20042;-71
2023/05/27 09:14:51;;;;;;;10.30;3.70;;;21.50;70.30;;;;;;4814935;29;20221;-72
2023/05/27 09:17:17;;;;;;;9.75;3.95;;;21.50;70.30;;;;;;4814324;29;20053;-71
2023/05/27 09:19:45;;;;;;;11.50;4.10;;;21.50;69.60;;;;;;4814828;29;20046;-74
2023/05/27 09:22:29;;;;;;;13.82;3.80;;;21.60;69.50;;;;;;4799975;29;20038;-76
2023/05/27 09:24:56;;;;;;;9.23;3.80;;;21.70;69.60;;;;;;4818122;29;20043;-72
2023/05/27 09:27:29;;;;;;;11.45;3.80;;;21.90;69.70;;;;;;4817223;29;20100;-72
2023/05/27 09:29:56;;;;;;;9.07;4.00;;;22.00;69.50;;;;;;4818027;29;20045;-70
2023/05/27 09:32:26;;;;;;;11.23;4.70;;;22.00;69.00;;;;;;4817249;29;20030;-71
2023/05/27 09:34:56;;;;;;;11.50;3.90;;;22.10;68.40;;;;;;4817824;29;20047;-69
2023/05/27 09:37:33;;;;;;;11.98;3.70;;;22.20;69.30;;;;;;4817296;29;20046;-72
2023/05/27 09:40:12;;;;;;;9.50;3.92;;;22.40;69.20;;;;;;4817507;29;20316;-69
2023/05/27 09:42:47;;;;;;;10.40;4.10;;;22.60;68.60;;;;;;4817888;29;20046;-69
2023/05/27 09:45:14;;;;;;;9.07;4.13;;;22.80;67.30;;;;;;4816798;29;20105;-70
2023/05/27 09:47:41;;;;;;;8.88;3.85;;;22.70;67.70;;;;;;4801290;29;20291;-71
2023/05/27 09:50:09;;;;;;;7.57;3.57;;;22.80;68.00;;;;;;4817049;29;20039;-71
2023/05/27 09:52:41;;;;;;;8.77;4.22;;;22.90;66.60;;;;;;4817728;29;20435;-71
2023/05/27 09:55:09;;;;;;;8.07;3.85;;;22.80;66.40;;;;;;4816804;29;20149;-71
2023/05/27 09:57:35;;;;;;;9.60;3.72;;;22.90;67.50;;;;;;4817724;29;20027;-71
2023/05/27 10:00:15;;;;;;;11.93;4.38;;;23.00;67.10;;;;;;4817197;29;20038;-72
2023/05/27 10:02:42;;;;;;;11.10;4.15;;;23.10;67.50;;;;;;4817189;29;20168;-71
2023/05/27 10:05:13;;;;;;;11.02;3.92;;;23.20;66.80;;;;;;4816684;29;20047;-70
2023/05/27 10:07:40;;;;;;;9.00;3.58;;;23.30;66.80;;;;;;4817339;29;20267;-70
2023/05/27 10:10:08;;;;;;;10.77;3.95;;;23.40;66.70;;;;;;4817058;29;20019;-71
2023/05/27 10:12:36;;;;;;;10.20;3.72;;;23.40;66.00;;;;;;4817402;29;20062;-71
2023/05/27 10:15:02;;;;;;;11.43;3.40;;;23.50;66.00;;;;;;4817364;29;20042;-70
2023/05/27 10:17:29;;;;;;;10.40;3.75;;;23.60;65.50;;;;;;4816699;29;20038;-71
2023/05/27 10:19:58;;;;;;;9.90;3.83;;;23.50;65.30;;;;;;4817216;29;20050;-71
2023/05/27 10:22:24;;;;;;;24.98;5.80;;;23.70;65.00;;;;;;4816472;29;20304;-71
2023/05/27 10:24:52;;;;;;;6.90;3.20;;;23.80;65.50;;;;;;4816758;29;20058;-70
2023/05/27 10:27:21;;;;;;;10.35;4.25;;;23.90;64.30;;;;;;4816646;29;20095;-72
2023/05/27 10:29:57;;;;;;;8.38;3.47;;;24.00;64.20;;;;;;4816932;29;20072;-70
2023/05/27 10:32:23;;;;;;;13.23;4.35;;;24.20;65.50;;;;;;4816682;29;20109;-71
2023/05/27 10:34:48;;;;;;;17.10;4.72;;;24.40;64.50;;;;;;4816164;29;20059;-71
2023/05/27 10:37:21;;;;;;;11.77;4.63;;;24.40;62.60;;;;;;4816461;29;20227;-71
2023/05/27 10:39:58;;;;;;;10.90;3.78;;;24.30;62.80;;;;;;4816893;29;20039;-70
2023/05/27 10:42:24;;;;;;;7.28;3.42;;;24.40;63.50;;;;;;4816490;29;20035;-73
2023/05/27 10:45:10;;;;;;;8.68;3.80;;;24.50;63.60;;;;;;4801037;29;20026;-71
2023/05/27 10:47:37;;;;;;;9.38;4.13;;;24.70;62.80;;;;;;4816660;29;20217;-70
2023/05/27 10:50:15;;;;;;;7.97;3.55;;;24.80;62.30;;;;;;4816575;29;20034;-71
2023/05/27 10:52:41;;;;;;;;;;;24.90;61.80;;;;;;4817196;29;20107;-70
2023/05/27 10:55:07;;;;;;;9.05;3.72;;;24.90;61.70;;;;;;4816203;29;19921;-71
2023/05/27 10:57:34;;;;;;;12.93;4.18;;;25.10;62.40;;;;;;4816472;29;20030;-72
2023/05/27 11:00:08;;;;;;;8.57;3.40;;;25.30;61.80;;;;;;4816645;29;20074;-74
2023/05/27 11:02:38;;;;;;;10.02;3.97;;;25.30;61.00;;;;;;4815931;29;20275;-71
2023/05/27 11:05:11;;;;;;;9.30;4.03;;;25.10;60.50;;;;;;4816127;29;20046;-70
2023/05/27 11:07:39;;;;;;;10.43;3.72;;;25.20;61.50;;;;;;4816324;29;20042;-70
2023/05/27 11:10:07;;;;;;;7.07;3.83;;;25.40;60.80;;;;;;4816342;29;20064;-70
2023/05/27 11:12:33;;;;;;;7.80;3.50;;;25.70;59.50;;;;;;4816344;29;20305;-70
2023/05/27 11:14:58;;;;;;;8.25;3.83;;;25.70;58.70;;;;;;4816371;29;20069;-71
2023/05/27 11:17:28;;;;;;;19.90;11.68;;;25.60;58.20;;;;;;4815456;29;20197;-72
2023/05/27 11:19:55;;;;;;;21.75;13.50;;;25.70;58.40;;;;;;4816339;29;20034;-70
2023/05/27 11:22:20;;;;;;;19.70;12.65;;;25.80;58.30;;;;;;4815353;29;20255;-71
2023/05/27 11:25:00;;;;;;;73.22;47.50;;;25.90;58.10;;;;;;4815889;29;20043;-75
2023/05/27 11:27:36;;;;;;;41.03;24.83;;;26.00;58.00;;;;;;4799476;29;20602;-70
2023/05/27 11:30:10;;;;;;;14.70;8.20;;;26.30;58.10;;;;;;4816018;29;20457;-70
2023/05/27 11:32:36;;;;;;;12.07;6.03;;;26.80;57.20;;;;;;4799853;29;20034;-71
2023/05/27 11:35:02;;;;;;;10.70;4.15;;;27.20;57.20;;;;;;4815948;29;20339;-72
2023/05/27 11:37:35;;;;;;;9.07;3.80;;;27.80;56.70;;;;;;4815206;29;20095;-71
2023/05/27 11:40:01;;;;;;;9.43;4.30;;;28.10;55.50;;;;;;4815883;29;20034;-71
2023/05/27 11:42:28;;;;;;;9.45;4.25;;;28.50;54.90;;;;;;4815045;29;20423;-73
2023/05/27 11:44:54;;;;;;;7.78;3.95;;;29.40;54.60;;;;;;4814887;29;20091;-73
2023/05/27 11:47:21;;;;;;;7.25;4.18;;;30.30;54.10;;;;;;4815038;29;20101;-73
2023/05/27 11:49:49;;;;;;;8.90;3.85;;;30.90;52.80;;;;;;4815887;29;20047;-73
2023/05/27 11:52:15;;;;;;;7.00;3.67;;;31.60;52.20;;;;;;4815281;29;20049;-73
2023/05/27 11:54:41;;;;;;;7.95;3.60;;;32.40;50.80;;;;;;4815623;29;20109;-72
2023/05/27 11:57:10;;;;;;;11.45;4.25;;;32.20;50.30;;;;;;4814149;29;20039;-72
2023/05/27 11:59:36;;;;;;;8.95;4.10;;;32.40;50.60;;;;;;4815483;29;20030;-72
2023/05/27 12:02:03;;;;;;;8.82;4.28;;;33.00;50.40;;;;;;4815344;29;20093;-72
2023/05/27 12:04:32;;;;;;;6.95;4.13;;;33.50;49.20;;;;;;4815071;29;20114;-71
2023/05/27 12:07:00;;;;;;;6.82;3.78;;;33.60;48.80;;;;;;4815499;29;20081;-73
2023/05/27 12:09:27;;;;;;;6.97;3.35;;;34.60;48.50;;;;;;4814759;29;20031;-71
2023/05/27 12:11:52;;;;;;;6.27;3.90;;;34.90;47.40;;;;;;4815324;29;20035;-69
2023/05/27 12:14:18;;;;;;;6.18;3.30;;;35.20;47.30;;;;;;4814974;29;20062;-71
2023/05/27 12:16:44;;;;;;;7.50;3.55;;;35.90;46.80;;;;;;4815424;29;20239;-72
2023/05/27 12:19:11;;;;;;;6.75;3.63;;;36.00;46.40;;;;;;4813654;29;20047;-71
2023/05/27 12:21:37;;;;;;;9.70;3.85;;;36.50;45.90;;;;;;4815210;29;20094;-72
2023/05/27 12:24:03;;;;;;;7.38;3.78;;;35.50;46.20;;;;;;4815075;29;20038;-73
2023/05/27 12:26:29;;;;;;;6.40;3.42;;;35.90;45.90;;;;;;4815063;29;20039;-72
2023/05/27 12:28:56;;;;;;;5.57;3.40;;;35.70;45.40;;;;;;4814750;29;20311;-73
2023/05/27 12:31:22;;;;;;;8.68;4.07;;;34.90;45.40;;;;;;4814579;29;20018;-72
2023/05/27 12:33:49;;;;;;;7.33;3.60;;;35.60;45.90;;;;;;4815040;29;20102;-71
2023/05/27 12:36:15;;;;;;;6.97;3.40;;;35.90;45.90;;;;;;4814856;29;20503;-72
2023/05/27 12:38:40;;;;;;;7.82;3.97;;;36.40;45.90;;;;;;4815059;29;20039;-72
2023/05/27 12:41:07;;;;;;;5.93;3.40;;;36.00;46.20;;;;;;4814220;29;20035;-70
2023/05/27 12:43:32;;;;;;;7.50;3.42;;;36.20;45.80;;;;;;4807321;29;20051;-73
2023/05/27 12:45:59;;;;;;;7.35;4.05;;;36.60;45.20;;;;;;4814854;29;20030;-73
2023/05/27 12:48:25;;;;;;;7.68;3.40;;;;;;;;;;4814874;29;20035;-72
2023/05/27 12:50:51;;;;;;;7.97;3.45;;;37.30;44.30;;;;;;4815156;29;20330;-71
2023/05/27 12:53:17;;;;;;;7.70;3.72;;;38.40;44.60;;;;;;4814261;29;20110;-71
2023/05/27 12:55:44;;;;;;;9.13;3.60;;;39.40;43.70;;;;;;4814954;29;20103;-72
2023/05/27 12:58:10;;;;;;;;;;;39.80;43.50;;;;;;4818368;29;20046;-71
2023/05/27 13:00:36;;;;;;;9.35;3.75;;;40.10;43.30;;;;;;4818818;29;19909;-71
2023/05/27 13:03:02;;;;;;;8.18;3.85;;;40.10;43.20;;;;;;4818771;29;20130;-72
2023/05/27 13:05:27;;;;;;;6.78;3.50;;;40.00;42.80;;;;;;4818228;29;20035;-72
2023/05/27 13:07:57;;;;;;;6.95;4.22;;;40.60;42.60;;;;;;4818734;29;20042;-72
2023/05/27 13:10:23;;;;;;;9.88;3.95;;;40.50;42.10;;;;;;4817735;29;20039;-72
2023/05/27 13:12:49;;;;;;;5.63;3.60;;;40.20;41.40;;;;;;4818022;29;20094;-72
2023/05/27 13:15:18;;;;;;;7.75;3.75;;;39.80;42.00;;;;;;4817676;29;20083;-72
2023/05/27 13:17:45;;;;;;;6.90;3.60;;;39.90;41.50;;;;;;4818129;29;20089;-74
2023/05/27 13:20:13;;;;;;;6.32;3.95;;;39.90;41.90;;;;;;4818384;29;20071;-73
2023/05/27 13:22:39;;;;;;;7.20;4.15;;;40.00;41.30;;;;;;4818144;29;20328;-71
2023/05/27 13:25:06;;;;;;;6.38;3.30;;;40.50;41.60;;;;;;4818286;29;20029;-73
2023/05/27 13:27:32;;;;;;;7.30;3.35;;;40.90;41.70;;;;;;4817764;29;20269;-73
2023/05/27 13:29:58;;;;;;;9.38;3.25;;;40.70;41.60;;;;;;4816322;29;20034;-73
2023/05/27 13:32:24;;;;;;;7.75;3.35;;;40.40;41.60;;;;;;4809773;29;20093;-72
2023/05/27 13:34:51;;;;;;;7.10;3.28;;;40.10;42.00;;;;;;4813685;29;20340;-73
2023/05/27 13:37:17;;;;;;;8.80;3.47;;;40.70;42.60;;;;;;4810966;29;20042;-73
2023/05/27 13:39:43;;;;;;;6.13;3.28;;;41.30;41.30;;;;;;4817773;29;20083;-72
2023/05/27 13:42:12;;;;;;;6.68;2.92;;;41.20;41.20;;;;;;4813125;29;20071;-72
2023/05/27 13:44:38;;;;;;;6.55;3.00;;;41.60;41.30;;;;;;4817449;29;20385;-72
2023/05/27 13:47:04;;;;;;;4.75;2.85;;;41.80;40.80;;;;;;4812275;29;20049;-72
2023/05/27 13:49:30;;;;;;;7.10;3.53;;;41.30;41.00;;;;;;4801328;29;20266;-73
2023/05/27 13:51:56;;;;;;;8.85;3.33;;;41.80;40.50;;;;;;4816997;29;20045;-71
2023/05/27 13:54:22;;;;;;;6.68;3.30;;;40.60;40.50;;;;;;4814419;29;20050;-72
2023/05/27 13:56:48;;;;;;;8.77;3.40;;;40.20;41.40;;;;;;4813709;29;20345;-71
2023/05/27 13:59:14;;;;;;;7.25;3.45;;;40.20;41.40;;;;;;4817121;29;20042;-72
2023/05/27 14:01:40;;;;;;;6.67;2.77;;;40.50;41.00;;;;;;4816555;29;20081;-73
2023/05/27 14:04:06;;;;;;;5.88;2.80;;;41.30;40.90;;;;;;4815165;29;20047;-72
2023/05/27 14:06:32;;;;;;;6.35;3.47;;;41.20;40.40;;;;;;4811239;29;20278;-72
2023/05/27 14:08:58;;;;;;;6.88;3.03;;;40.90;39.90;;;;;;4814966;29;20046;-71
2023/05/27 14:11:25;;;;;;;6.97;2.97;;;41.10;39.80;;;;;;4816191;29;20097;-71
2023/05/27 14:13:52;;;;;;;6.40;3.40;;;41.70;39.80;;;;;;4817159;29;20047;-71
2023/05/27 14:16:18;;;;;;;5.50;2.72;;;41.70;38.80;;;;;;4816377;29;20039;-72
2023/05/27 14:18:44;;;;;;;6.32;2.78;;;42.40;38.80;;;;;;4816875;29;20109;-71
2023/05/27 14:21:10;;;;;;;5.15;2.70;;;42.40;38.50;;;;;;4817377;29;20058;-72
2023/05/27 14:23:35;;;;;;;5.15;2.60;;;42.30;38.80;;;;;;4815435;29;20161;-72
2023/05/27 14:26:01;;;;;;;5.35;2.97;;;41.30;38.00;;;;;;4819558;29;20038;-72
2023/05/27 14:28:27;;;;;;;8.05;3.03;;;41.20;38.60;;;;;;4820266;29;20249;-72
2023/05/27 14:30:52;;;;;;;5.55;2.80;;;41.50;38.10;;;;;;4816767;29;20050;-71
2023/05/27 14:33:18;;;;;;;7.03;2.80;;;41.50;38.20;;;;;;4810999;29;20102;-73
2023/05/27 14:35:44;;;;;;;6.03;3.00;;;41.40;38.30;;;;;;4811378;29;20058;-72
2023/05/27 14:38:12;;;;;;;6.30;2.30;;;42.00;37.80;;;;;;4815594;29;20026;-72
2023/05/27 14:40:38;;;;;;;9.10;2.55;;;42.40;37.80;;;;;;4800126;29;20042;-72
2023/05/27 14:43:05;;;;;;;5.90;2.40;;;42.40;36.60;;;;;;4815612;29;20043;-74
2023/05/27 14:45:32;;;;;;;7.22;2.00;;;41.00;36.60;;;;;;4813979;29;20046;-73
2023/05/27 14:47:58;;;;;;;7.28;2.40;;;41.50;37.30;;;;;;4816882;29;20034;-71
2023/05/27 14:50:24;;;;;;;4.50;2.22;;;42.00;36.00;;;;;;4815333;29;20037;-73
2023/05/27 14:52:51;;;;;;;5.65;2.30;;;42.30;35.30;;;;;;4815721;29;20106;-72
2023/05/27 14:55:17;;;;;;;;;;;42.10;34.90;;;;;;4816265;29;20099;-73
2023/05/27 14:57:42;;;;;;;6.03;2.50;;;41.30;35.10;;;;;;4813213;29;19916;-71
2023/05/27 15:00:09;;;;;;;5.35;2.47;;;40.70;34.80;;;;;;4809270;29;20309;-73
2023/05/27 15:02:35;;;;;;;4.30;2.25;;;41.10;35.20;;;;;;4813559;29;20376;-73
2023/05/27 15:05:04;;;;;;;4.10;2.13;;;40.90;35.10;;;;;;4816556;29;20050;-73
2023/05/27 15:07:31;;;;;;;5.50;2.00;;;41.90;35.70;;;;;;4814733;29;20050;-72
2023/05/27 15:09:57;;;;;;;5.07;2.17;;;42.20;36.00;;;;;;4816044;29;20065;-73
2023/05/27 15:12:23;;;;;;;8.50;2.47;;;42.00;35.30;;;;;;4806927;29;20043;-72
2023/05/27 15:14:49;;;;;;;4.25;1.90;;;41.10;36.00;;;;;;4814724;29;20034;-73
2023/05/27 15:17:15;;;;;;;4.82;2.08;;;41.10;35.30;;;;;;4815395;29;20038;-72
2023/05/27 15:19:41;;;;;;;5.22;2.10;;;41.90;36.80;;;;;;4815152;29;20042;-72
2023/05/27 15:22:07;;;;;;;4.85;2.55;;;42.90;36.10;;;;;;4816074;29;20345;-73
2023/05/27 15:24:34;;;;;;;5.35;2.15;;;43.50;35.10;;;;;;4814963;29;20038;-74
2023/05/27 15:27:00;;;;;;;5.00;2.25;;;43.30;34.90;;;;;;4811225;29;20359;-73
2023/05/27 15:29:26;;;;;;;4.50;2.47;;;42.40;35.10;;;;;;4814481;29;20347;-73
2023/05/27 15:31:51;;;;;;;4.68;2.10;;;41.90;35.00;;;;;;4806948;29;20041;-73
2023/05/27 15:34:17;;;;;;;5.57;2.60;;;42.30;35.00;;;;;;4814645;29;20054;-73
2023/05/27 15:36:43;;;;;;;5.53;2.60;;;40.90;35.00;;;;;;4816276;29;20038;-72
2023/05/27 15:39:09;;;;;;;5.20;2.30;;;41.10;35.30;;;;;;4815485;29;20050;-71
2023/05/27 15:41:35;;;;;;;5.43;2.55;;;41.30;35.20;;;;;;4815447;29;20046;-73
2023/05/27 15:44:00;;;;;;;5.47;2.70;;;41.70;35.30;;;;;;4815410;29;20312;-72
2023/05/27 15:46:26;;;;;;;6.47;2.50;;;41.90;35.00;;;;;;4815334;29;20133;-71
2023/05/27 15:48:52;;;;;;;3.78;2.10;;;42.90;35.10;;;;;;4815621;29;20039;-72
2023/05/27 15:51:18;;;;;;;6.53;2.50;;;42.70;34.40;;;;;;4815114;29;20053;-73
2023/05/27 15:53:44;;;;;;;4.28;2.13;;;42.10;34.30;;;;;;4815634;29;20071;-71
2023/05/27 15:56:11;;;;;;;5.05;2.65;;;41.70;35.00;;;;;;4814485;29;20062;-72
2023/05/27 15:58:37;;;;;;;5.47;2.47;;;42.40;34.80;;;;;;4809567;29;20214;-73
2023/05/27 16:01:02;;;;;;;6.30;2.50;;;42.70;34.60;;;;;;4815524;29;20072;-74
2023/05/27 16:03:28;;;;;;;5.78;2.17;;;41.60;34.90;;;;;;4814710;29;20063;-72
2023/05/27 16:05:54;;;;;;;4.82;2.50;;;41.80;35.60;;;;;;4815246;29;20034;-72
2023/05/27 16:08:20;;;;;;;5.38;2.65;;;41.90;35.20;;;;;;4815235;29;20268;-73
2023/05/27 16:10:48;;;;;;;8.43;3.15;;;40.30;35.50;;;;;;4815419;29;20255;-72
2023/05/27 16:13:14;;;;;;;6.18;2.92;;;39.70;36.30;;;;;;4815619;29;20077;-73
2023/05/27 16:15:40;;;;;;;6.75;2.28;;;40.50;36.80;;;;;;4814733;29;20328;-71
2023/05/27 16:18:05;;;;;;;6.63;2.58;;;41.00;36.50;;;;;;4799345;29;20258;-72
2023/05/27 16:20:31;;;;;;;5.13;2.42;;;41.60;36.50;;;;;;4814588;29;20034;-73
2023/05/27 16:22:57;;;;;;;6.38;2.80;;;41.40;36.20;;;;;;4815188;29;20225;-73
2023/05/27 16:25:23;;;;;;;5.22;2.35;;;41.90;36.40;;;;;;4814870;29;20046;-73
2023/05/27 16:27:48;;;;;;;4.93;2.65;;;42.30;35.80;;;;;;4815015;29;20034;-72
2023/05/27 16:30:14;;;;;;;6.32;2.40;;;41.90;36.20;;;;;;4815343;29;20039;-73
2023/05/27 16:32:40;;;;;;;4.68;2.20;;;41.10;35.60;;;;;;4813955;29;20037;-71
2023/05/27 16:35:06;;;;;;;6.03;2.55;;;39.90;36.00;;;;;;4811050;29;20043;-72
2023/05/27 16:37:31;;;;;;;6.82;2.50;;;40.20;37.10;;;;;;4813299;29;20030;-72
2023/05/27 16:39:57;;;;;;;5.13;2.58;;;40.80;36.20;;;;;;4815363;29;20043;-73
2023/05/27 16:42:23;;;;;;;6.93;2.60;;;40.80;36.80;;;;;;4814758;29;20054;-72
2023/05/27 16:44:50;;;;;;;7.40;2.92;;;39.80;36.20;;;;;;4815541;29;20043;-73
2023/05/27 16:47:16;;;;;;;;;;;38.60;37.30;;;;;;4815210;29;20049;-73
2023/05/27 16:49:42;;;;;;;4.65;2.45;;;37.10;38.20;;;;;;4814677;29;20150;-71
2023/05/27 16:52:08;;;;;;;6.60;2.80;;;35.80;39.00;;;;;;4815078;29;20327;-72
2023/05/27 16:54:33;;;;;;;5.60;2.50;;;34.50;39.90;;;;;;4814276;29;20038;-71
2023/05/27 16:56:59;;;;;;;5.90;2.63;;;33.20;40.60;;;;;;4815039;29;20047;-72
2023/05/27 16:59:25;;;;;;;7.53;3.08;;;32.70;41.20;;;;;;4814239;29;20042;-71
2023/05/27 17:01:51;;;;;;;7.38;2.80;;;32.50;42.10;;;;;;4814480;29;20047;-71
2023/05/27 17:04:16;;;;;;;7.78;2.88;;;32.70;41.80;;;;;;4815268;29;20057;-71
2023/05/27 17:06:42;;;;;;;6.07;3.03;;;33.50;41.40;;;;;;4814692;29;20304;-71
2023/05/27 17:09:08;;;;;;;6.57;2.58;;;34.80;41.30;;;;;;4814721;29;20030;-73
2023/05/27 17:11:34;;;;;;;5.03;2.70;;;35.80;39.90;;;;;;4814503;29;20054;-71
2023/05/27 17:14:00;;;;;;;6.35;2.45;;;36.60;39.70;;;;;;4814676;29;20043;-72
2023/05/27 17:16:26;;;;;;;5.20;2.60;;;37.20;39.20;;;;;;4814745;29;20216;-71
2023/05/27 17:18:51;;;;;;;4.75;2.40;;;37.60;38.80;;;;;;4814919;29;20110;-72
2023/05/27 17:21:17;;;;;;;6.68;2.97;;;37.80;39.30;;;;;;4798531;29;20027;-71
2023/05/27 17:23:43;;;;;;;4.97;2.28;;;38.10;38.30;;;;;;4814470;29;20050;-72
2023/05/27 17:26:09;;;;;;;5.10;2.50;;;37.80;38.60;;;;;;4814721;29;20043;-69
2023/05/27 17:28:35;;;;;;;5.05;2.38;;;37.80;38.20;;;;;;4814722;29;20305;-73
2023/05/27 17:31:00;;;;;;;8.68;2.35;;;37.40;38.40;;;;;;4814407;29;20042;-72
2023/05/27 17:33:26;;;;;;;6.10;2.30;;;37.00;38.40;;;;;;4814291;29;20054;-72
2023/05/27 17:35:52;;;;;;;5.60;2.22;;;36.70;39.20;;;;;;4814499;29;20305;-72
2023/05/27 17:38:20;;;;;;;5.50;2.50;;;36.70;39.20;;;;;;4814586;29;20051;-70
2023/05/27 17:40:46;;;;;;;7.57;2.97;;;37.00;39.30;;;;;;4814693;29;20043;-71
2023/05/27 17:43:12;;;;;;;5.63;2.63;;;36.90;39.20;;;;;;4814837;29;20053;-70
2023/05/27 17:45:37;;;;;;;5.13;2.00;;;36.60;38.70;;;;;;4817379;29;20152;-71
2023/05/27 17:48:03;;;;;;;6.38;2.65;;;36.00;39.40;;;;;;4817761;29;20312;-71
2023/05/27 17:50:29;;;;;;;5.75;2.38;;;35.00;39.80;;;;;;4817232;29;20323;-71